sensor_id;sensor_type;location;lat;lon;timestamp;P1;durP1;ratioP1;P2;durP2;ratioP2
69856;SDS011;57147;53.582;10.112;2023-05-02T00:02:16;24.63;;;13.90;;
69856;SDS011;57147;53.582;10.112;2023-05-02T00:07:20;27.98;;;15.63;;
69856;SDS011;57147;53.582;10.112;2023-05-02T00:12:20;25.13;;;15.27;;
69856;SDS011;57147;53.582;10.112;2023-05-02T00:17:21;29.05;;;15.48;;
69856;SDS011;57147;53.582;10.112;2023-05-02T00:22:24;26.55;;;15.55;;
69856;SDS011;57147;53.582;10.112;2023-05-02T00:27:24;27.23;;;16.60;;
69856;SDS011;57147;53.582;10.112;2023-05-02T00:32:25;27.13;;;16.40;;
69856;SDS011;57147;53.582;10.112;2023-05-02T00:37:30;27.45;;;16.05;;
69856;SDS011;57147;53.582;10.112;2023-05-02T00:42:31;32.08;;;16.85;;
69856;SDS011;57147;53.582;10.112;2023-05-02T00:47:32;31.60;;;17.70;;
69856;SDS011;57147;53.582;10.112;2023-05-02T00:52:35;30.33;;;17.90;;
69856;SDS011;57147;53.582;10.112;2023-05-02T00:57:37;33.10;;;18.33;;
69856;SDS011;57147;53.582;10.112;2023-05-02T01:02:51;28.65;;;15.45;;
69856;SDS011;57147;53.582;10.112;2023-05-02T01:08:12;30.52;;;16.98;;
69856;SDS011;57147;53.582;10.112;2023-05-02T01:13:19;29.15;;;16.67;;
69856;SDS011;57147;53.582;10.112;2023-05-02T01:18:22;31.08;;;17.55;;
69856;SDS011;57147;53.582;10.112;2023-05-02T01:23:31;28.50;;;17.08;;
69856;SDS011;57147;53.582;10.112;2023-05-02T01:28:52;28.20;;;16.23;;
69856;SDS011;57147;53.582;10.112;2023-05-02T01:33:56;26.67;;;15.23;;
69856;SDS011;57147;53.582;10.112;2023-05-02T01:38:59;26.45;;;16.63;;
69856;SDS011;57147;53.582;10.112;2023-05-02T01:44:04;21.65;;;12.25;;
69856;SDS011;57147;53.582;10.112;2023-05-02T01:49:06;22.08;;;12.50;;
69856;SDS011;57147;53.582;10.112;2023-05-02T01:54:08;19.23;;;9.45;;
69856;SDS011;57147;53.582;10.112;2023-05-02T01:59:16;19.67;;;10.13;;
69856;SDS011;57147;53.582;10.112;2023-05-02T02:04:18;22.05;;;11.20;;
69856;SDS011;57147;53.582;10.112;2023-05-02T02:09:20;19.80;;;10.02;;
69856;SDS011;57147;53.582;10.112;2023-05-02T02:14:24;21.33;;;10.00;;
69856;SDS011;57147;53.582;10.112;2023-05-02T02:19:25;17.65;;;10.40;;
69856;SDS011;57147;53.582;10.112;2023-05-02T02:24:28;17.30;;;8.50;;
69856;SDS011;57147;53.582;10.112;2023-05-02T02:29:34;14.90;;;7.70;;
69856;SDS011;57147;53.582;10.112;2023-05-02T02:34:34;14.48;;;7.32;;
69856;SDS011;57147;53.582;10.112;2023-05-02T02:39:38;11.20;;;6.00;;
69856;SDS011;57147;53.582;10.112;2023-05-02T02:44:50;9.52;;;6.63;;
69856;SDS011;57147;53.582;10.112;2023-05-02T02:49:59;6.68;;;6.07;;
69856;SDS011;57147;53.582;10.112;2023-05-02T02:55:10;6.53;;;4.47;;
69856;SDS011;57147;53.582;10.112;2023-05-02T03:00:19;6.15;;;4.18;;
69856;SDS011;57147;53.582;10.112;2023-05-02T03:05:23;8.07;;;3.33;;
69856;SDS011;57147;53.582;10.112;2023-05-02T03:10:24;11.00;;;3.33;;
69856;SDS011;57147;53.582;10.112;2023-05-02T03:15:38;9.50;;;2.60;;
69856;SDS011;57147;53.582;10.112;2023-05-02T03:20:59;8.82;;;2.85;;
69856;SDS011;57147;53.582;10.112;2023-05-02T03:26:00;11.35;;;2.97;;
69856;SDS011;57147;53.582;10.112;2023-05-02T03:31:04;15.93;;;3.28;;
69856;SDS011;57147;53.582;10.112;2023-05-02T03:36:05;18.33;;;5.40;;
69856;SDS011;57147;53.582;10.112;2023-05-02T03:41:06;12.93;;;3.33;;
69856;SDS011;57147;53.582;10.112;2023-05-02T03:46:09;12.02;;;3.45;;
69856;SDS011;57147;53.582;10.112;2023-05-02T03:51:10;16.70;;;2.50;;
69856;SDS011;57147;53.582;10.112;2023-05-02T03:56:11;12.43;;;3.00;;
69856;SDS011;57147;53.582;10.112;2023-05-02T04:01:15;14.65;;;3.40;;
69856;SDS011;57147;53.582;10.112;2023-05-02T04:06:16;17.30;;;3.67;;
69856;SDS011;57147;53.582;10.112;2023-05-02T04:11:16;14.93;;;3.25;;
69856;SDS011;57147;53.582;10.112;2023-05-02T04:16:20;14.90;;;4.20;;
69856;SDS011;57147;53.582;10.112;2023-05-02T04:21:20;14.18;;;2.88;;
69856;SDS011;57147;53.582;10.112;2023-05-02T04:26:21;13.65;;;4.43;;
69856;SDS011;57147;53.582;10.112;2023-05-02T04:31:24;10.00;;;2.67;;
69856;SDS011;57147;53.582;10.112;2023-05-02T04:36:25;13.75;;;2.95;;
69856;SDS011;57147;53.582;10.112;2023-05-02T04:41:26;10.70;;;3.70;;
69856;SDS011;57147;53.582;10.112;2023-05-02T04:46:29;10.93;;;2.88;;
69856;SDS011;57147;53.582;10.112;2023-05-02T04:51:30;9.52;;;2.67;;
69856;SDS011;57147;53.582;10.112;2023-05-02T04:56:30;11.40;;;3.22;;
69856;SDS011;57147;53.582;10.112;2023-05-02T05:01:34;8.05;;;2.38;;
69856;SDS011;57147;53.582;10.112;2023-05-02T05:06:34;11.75;;;2.85;;
69856;SDS011;57147;53.582;10.112;2023-05-02T05:11:35;12.32;;;2.20;;
69856;SDS011;57147;53.582;10.112;2023-05-02T05:16:38;12.73;;;3.70;;
69856;SDS011;57147;53.582;10.112;2023-05-02T05:21:39;13.65;;;3.00;;
69856;SDS011;57147;53.582;10.112;2023-05-02T05:26:39;14.30;;;4.32;;
69856;SDS011;57147;53.582;10.112;2023-05-02T05:31:42;13.20;;;2.72;;
69856;SDS011;57147;53.582;10.112;2023-05-02T05:36:43;11.48;;;2.85;;
69856;SDS011;57147;53.582;10.112;2023-05-02T05:41:44;10.57;;;3.15;;
69856;SDS011;57147;53.582;10.112;2023-05-02T05:46:47;10.55;;;3.17;;
69856;SDS011;57147;53.582;10.112;2023-05-02T05:51:47;11.43;;;3.85;;
69856;SDS011;57147;53.582;10.112;2023-05-02T05:56:48;13.77;;;3.92;;
69856;SDS011;57147;53.582;10.112;2023-05-02T06:01:51;11.30;;;2.08;;
69856;SDS011;57147;53.582;10.112;2023-05-02T06:06:52;6.40;;;1.75;;
69856;SDS011;57147;53.582;10.112;2023-05-02T06:11:52;6.70;;;2.30;;
69856;SDS011;57147;53.582;10.112;2023-05-02T06:16:56;12.43;;;2.55;;
69856;SDS011;57147;53.582;10.112;2023-05-02T06:21:58;7.20;;;2.25;;
69856;SDS011;57147;53.582;10.112;2023-05-02T06:26:58;10.23;;;2.15;;
69856;SDS011;57147;53.582;10.112;2023-05-02T06:32:02;9.50;;;2.33;;
69856;SDS011;57147;53.582;10.112;2023-05-02T06:37:02;6.45;;;1.85;;
69856;SDS011;57147;53.582;10.112;2023-05-02T06:42:03;4.75;;;1.60;;
69856;SDS011;57147;53.582;10.112;2023-05-02T06:47:06;6.03;;;2.38;;
69856;SDS011;57147;53.582;10.112;2023-05-02T06:52:07;7.70;;;2.10;;
69856;SDS011;57147;53.582;10.112;2023-05-02T06:57:07;7.78;;;2.30;;
69856;SDS011;57147;53.582;10.112;2023-05-02T07:02:11;5.78;;;1.92;;
69856;SDS011;57147;53.582;10.112;2023-05-02T07:07:11;9.80;;;2.20;;
69856;SDS011;57147;53.582;10.112;2023-05-02T07:12:12;10.15;;;3.60;;
69856;SDS011;57147;53.582;10.112;2023-05-02T07:17:15;5.38;;;2.28;;
69856;SDS011;57147;53.582;10.112;2023-05-02T07:22:15;3.47;;;2.10;;
69856;SDS011;57147;53.582;10.112;2023-05-02T07:27:16;6.65;;;3.65;;
69856;SDS011;57147;53.582;10.112;2023-05-02T07:32:19;7.60;;;2.28;;
69856;SDS011;57147;53.582;10.112;2023-05-02T07:37:20;9.70;;;2.97;;
69856;SDS011;57147;53.582;10.112;2023-05-02T07:42:21;4.57;;;1.10;;
69856;SDS011;57147;53.582;10.112;2023-05-02T07:47:24;4.60;;;1.42;;
69856;SDS011;57147;53.582;10.112;2023-05-02T07:52:25;4.90;;;1.23;;
69856;SDS011;57147;53.582;10.112;2023-05-02T07:57:25;3.67;;;1.52;;
69856;SDS011;57147;53.582;10.112;2023-05-02T08:02:29;4.40;;;1.33;;
69856;SDS011;57147;53.582;10.112;2023-05-02T08:07:30;4.90;;;1.63;;
69856;SDS011;57147;53.582;10.112;2023-05-02T08:12:31;4.05;;;1.88;;
69856;SDS011;57147;53.582;10.112;2023-05-02T08:17:34;3.47;;;1.88;;
69856;SDS011;57147;53.582;10.112;2023-05-02T08:22:35;5.25;;;2.25;;
69856;SDS011;57147;53.582;10.112;2023-05-02T08:27:36;3.85;;;1.30;;
69856;SDS011;57147;53.582;10.112;2023-05-02T08:32:39;6.20;;;2.13;;
69856;SDS011;57147;53.582;10.112;2023-05-02T08:37:40;5.70;;;1.33;;
69856;SDS011;57147;53.582;10.112;2023-05-02T08:42:41;5.22;;;1.27;;
69856;SDS011;57147;53.582;10.112;2023-05-02T08:47:45;5.00;;;2.30;;
69856;SDS011;57147;53.582;10.112;2023-05-02T08:52:46;7.80;;;1.45;;
69856;SDS011;57147;53.582;10.112;2023-05-02T08:57:50;10.00;;;3.40;;
69856;SDS011;57147;53.582;10.112;2023-05-02T09:02:58;5.00;;;1.38;;
69856;SDS011;57147;53.582;10.112;2023-05-02T09:08:06;7.28;;;1.48;;
69856;SDS011;57147;53.582;10.112;2023-05-02T09:18:33;4.38;;;2.55;;
69856;SDS011;57147;53.582;10.112;2023-05-02T09:23:35;5.25;;;1.33;;
69856;SDS011;57147;53.582;10.112;2023-05-02T09:28:41;4.90;;;2.05;;
69856;SDS011;57147;53.582;10.112;2023-05-02T09:33:45;4.75;;;2.17;;
69856;SDS011;57147;53.582;10.112;2023-05-02T09:38:47;3.97;;;2.35;;
69856;SDS011;57147;53.582;10.112;2023-05-02T09:43:55;7.20;;;3.00;;
69856;SDS011;57147;53.582;10.112;2023-05-02T09:48:58;3.58;;;2.20;;
69856;SDS011;57147;53.582;10.112;2023-05-02T09:53:59;5.80;;;4.90;;
69856;SDS011;57147;53.582;10.112;2023-05-02T10:04:17;4.03;;;1.58;;
69856;SDS011;57147;53.582;10.112;2023-05-02T10:09:18;4.32;;;0.88;;
69856;SDS011;57147;53.582;10.112;2023-05-02T10:14:20;2.22;;;1.27;;
69856;SDS011;57147;53.582;10.112;2023-05-02T10:19:26;3.03;;;1.88;;
69856;SDS011;57147;53.582;10.112;2023-05-02T10:24:32;2.88;;;1.33;;
69856;SDS011;57147;53.582;10.112;2023-05-02T10:29:33;6.00;;;1.60;;
69856;SDS011;57147;53.582;10.112;2023-05-02T10:34:37;2.42;;;1.35;;
69856;SDS011;57147;53.582;10.112;2023-05-02T10:39:40;3.83;;;1.45;;
69856;SDS011;57147;53.582;10.112;2023-05-02T10:44:41;7.80;;;1.25;;
69856;SDS011;57147;53.582;10.112;2023-05-02T10:49:50;4.88;;;2.15;;
69856;SDS011;57147;53.582;10.112;2023-05-02T10:54:52;3.50;;;1.35;;
69856;SDS011;57147;53.582;10.112;2023-05-02T11:00:22;3.78;;;1.65;;
69856;SDS011;57147;53.582;10.112;2023-05-02T11:05:28;3.30;;;1.30;;
69856;SDS011;57147;53.582;10.112;2023-05-02T11:10:29;6.25;;;1.58;;
69856;SDS011;57147;53.582;10.112;2023-05-02T11:21:23;3.78;;;1.13;;
69856;SDS011;57147;53.582;10.112;2023-05-02T11:26:24;5.35;;;1.48;;
69856;SDS011;57147;53.582;10.112;2023-05-02T11:36:55;4.50;;;0.60;;
69856;SDS011;57147;53.582;10.112;2023-05-02T11:41:55;1.83;;;1.17;;
69856;SDS011;57147;53.582;10.112;2023-05-02T11:46:57;4.45;;;0.90;;
69856;SDS011;57147;53.582;10.112;2023-05-02T11:52:00;1.60;;;0.88;;
69856;SDS011;57147;53.582;10.112;2023-05-02T11:57:01;4.30;;;1.08;;
69856;SDS011;57147;53.582;10.112;2023-05-02T12:02:01;3.97;;;2.42;;
69856;SDS011;57147;53.582;10.112;2023-05-02T12:07:04;3.78;;;1.40;;
69856;SDS011;57147;53.582;10.112;2023-05-02T12:12:05;2.90;;;0.82;;
69856;SDS011;57147;53.582;10.112;2023-05-02T12:17:06;3.83;;;3.30;;
69856;SDS011;57147;53.582;10.112;2023-05-02T12:22:09;3.42;;;1.13;;
69856;SDS011;57147;53.582;10.112;2023-05-02T12:27:11;5.00;;;1.60;;
69856;SDS011;57147;53.582;10.112;2023-05-02T12:32:12;3.63;;;1.48;;
69856;SDS011;57147;53.582;10.112;2023-05-02T12:37:29;5.93;;;0.60;;
69856;SDS011;57147;53.582;10.112;2023-05-02T12:42:30;3.35;;;0.98;;
69856;SDS011;57147;53.582;10.112;2023-05-02T12:47:30;2.97;;;1.20;;
69856;SDS011;57147;53.582;10.112;2023-05-02T12:52:50;6.07;;;1.35;;
69856;SDS011;57147;53.582;10.112;2023-05-02T12:57:58;6.05;;;1.23;;
69856;SDS011;57147;53.582;10.112;2023-05-02T13:03:00;2.55;;;1.83;;
69856;SDS011;57147;53.582;10.112;2023-05-02T13:08:03;5.22;;;1.40;;
69856;SDS011;57147;53.582;10.112;2023-05-02T13:13:04;3.60;;;1.00;;
69856;SDS011;57147;53.582;10.112;2023-05-02T13:18:05;2.00;;;0.93;;
69856;SDS011;57147;53.582;10.112;2023-05-02T13:23:08;3.83;;;2.95;;
69856;SDS011;57147;53.582;10.112;2023-05-02T13:28:08;2.97;;;0.77;;
69856;SDS011;57147;53.582;10.112;2023-05-02T13:33:09;3.53;;;1.10;;
69856;SDS011;57147;53.582;10.112;2023-05-02T13:38:12;3.92;;;0.90;;
69856;SDS011;57147;53.582;10.112;2023-05-02T13:43:13;5.65;;;2.17;;
69856;SDS011;57147;53.582;10.112;2023-05-02T13:48:13;3.70;;;1.85;;
69856;SDS011;57147;53.582;10.112;2023-05-02T13:53:17;2.95;;;1.13;;
69856;SDS011;57147;53.582;10.112;2023-05-02T13:58:17;3.13;;;1.10;;
69856;SDS011;57147;53.582;10.112;2023-05-02T14:03:18;4.88;;;1.58;;
69856;SDS011;57147;53.582;10.112;2023-05-02T14:08:21;4.85;;;0.95;;
69856;SDS011;57147;53.582;10.112;2023-05-02T14:13:22;4.28;;;1.70;;
69856;SDS011;57147;53.582;10.112;2023-05-02T14:18:23;4.00;;;1.52;;
69856;SDS011;57147;53.582;10.112;2023-05-02T14:23:26;5.07;;;1.50;;
69856;SDS011;57147;53.582;10.112;2023-05-02T14:28:27;5.55;;;1.13;;
69856;SDS011;57147;53.582;10.112;2023-05-02T14:33:38;4.15;;;1.38;;
69856;SDS011;57147;53.582;10.112;2023-05-02T14:38:41;3.40;;;0.95;;
69856;SDS011;57147;53.582;10.112;2023-05-02T14:43:41;4.80;;;0.80;;
69856;SDS011;57147;53.582;10.112;2023-05-02T14:48:53;4.55;;;1.08;;
69856;SDS011;57147;53.582;10.112;2023-05-02T14:53:57;3.47;;;0.93;;
69856;SDS011;57147;53.582;10.112;2023-05-02T14:58:59;4.32;;;1.10;;
69856;SDS011;57147;53.582;10.112;2023-05-02T15:04:00;3.75;;;0.80;;
69856;SDS011;57147;53.582;10.112;2023-05-02T15:09:03;4.63;;;1.40;;
69856;SDS011;57147;53.582;10.112;2023-05-02T15:14:03;3.40;;;0.82;;
69856;SDS011;57147;53.582;10.112;2023-05-02T15:19:04;3.50;;;2.03;;
69856;SDS011;57147;53.582;10.112;2023-05-02T15:24:07;4.20;;;1.77;;
69856;SDS011;57147;53.582;10.112;2023-05-02T15:29:08;3.47;;;1.55;;
69856;SDS011;57147;53.582;10.112;2023-05-02T15:34:09;4.97;;;3.22;;
69856;SDS011;57147;53.582;10.112;2023-05-02T15:39:12;2.58;;;1.23;;
69856;SDS011;57147;53.582;10.112;2023-05-02T15:44:12;4.55;;;1.20;;
69856;SDS011;57147;53.582;10.112;2023-05-02T15:49:13;4.20;;;0.80;;
69856;SDS011;57147;53.582;10.112;2023-05-02T15:54:16;3.47;;;0.75;;
69856;SDS011;57147;53.582;10.112;2023-05-02T15:59:17;3.88;;;1.20;;
69856;SDS011;57147;53.582;10.112;2023-05-02T16:04:18;3.65;;;1.40;;
69856;SDS011;57147;53.582;10.112;2023-05-02T16:09:21;4.47;;;1.13;;
69856;SDS011;57147;53.582;10.112;2023-05-02T16:14:22;7.68;;;1.60;;
69856;SDS011;57147;53.582;10.112;2023-05-02T16:19:22;3.20;;;1.08;;
69856;SDS011;57147;53.582;10.112;2023-05-02T16:24:25;4.68;;;3.58;;
69856;SDS011;57147;53.582;10.112;2023-05-02T16:29:27;2.20;;;0.82;;
69856;SDS011;57147;53.582;10.112;2023-05-02T16:34:29;2.15;;;1.08;;
69856;SDS011;57147;53.582;10.112;2023-05-02T16:39:33;6.57;;;2.72;;
69856;SDS011;57147;53.582;10.112;2023-05-02T16:44:33;3.83;;;1.63;;
69856;SDS011;57147;53.582;10.112;2023-05-02T16:49:34;2.90;;;1.17;;
69856;SDS011;57147;53.582;10.112;2023-05-02T16:54:37;5.35;;;1.58;;
69856;SDS011;57147;53.582;10.112;2023-05-02T16:59:38;2.95;;;1.42;;
69856;SDS011;57147;53.582;10.112;2023-05-02T17:04:39;4.07;;;1.80;;
69856;SDS011;57147;53.582;10.112;2023-05-02T17:09:42;3.83;;;1.30;;
69856;SDS011;57147;53.582;10.112;2023-05-02T17:14:43;2.15;;;0.47;;
69856;SDS011;57147;53.582;10.112;2023-05-02T17:19:43;5.22;;;2.15;;
69856;SDS011;57147;53.582;10.112;2023-05-02T17:24:47;8.82;;;1.27;;
69856;SDS011;57147;53.582;10.112;2023-05-02T17:29:47;3.75;;;1.40;;
69856;SDS011;57147;53.582;10.112;2023-05-02T17:34:48;6.05;;;1.58;;
69856;SDS011;57147;53.582;10.112;2023-05-02T17:39:51;4.38;;;1.15;;
69856;SDS011;57147;53.582;10.112;2023-05-02T17:44:52;4.95;;;1.23;;
69856;SDS011;57147;53.582;10.112;2023-05-02T17:49:52;6.55;;;1.40;;
69856;SDS011;57147;53.582;10.112;2023-05-02T17:54:55;4.10;;;2.20;;
69856;SDS011;57147;53.582;10.112;2023-05-02T17:59:56;2.72;;;1.67;;
69856;SDS011;57147;53.582;10.112;2023-05-02T18:04:57;3.42;;;1.25;;
69856;SDS011;57147;53.582;10.112;2023-05-02T18:10:00;2.25;;;0.98;;
69856;SDS011;57147;53.582;10.112;2023-05-02T18:15:01;4.15;;;1.38;;
69856;SDS011;57147;53.582;10.112;2023-05-02T18:20:05;4.20;;;1.83;;
69856;SDS011;57147;53.582;10.112;2023-05-02T18:25:09;4.10;;;1.35;;
69856;SDS011;57147;53.582;10.112;2023-05-02T18:30:10;3.53;;;1.25;;
69856;SDS011;57147;53.582;10.112;2023-05-02T18:35:11;4.72;;;2.00;;
69856;SDS011;57147;53.582;10.112;2023-05-02T18:40:14;4.65;;;1.02;;
69856;SDS011;57147;53.582;10.112;2023-05-02T18:45:15;3.47;;;1.67;;
69856;SDS011;57147;53.582;10.112;2023-05-02T18:50:15;2.63;;;1.38;;
69856;SDS011;57147;53.582;10.112;2023-05-02T18:55:19;4.07;;;1.25;;
69856;SDS011;57147;53.582;10.112;2023-05-02T19:00:19;5.40;;;0.90;;
69856;SDS011;57147;53.582;10.112;2023-05-02T19:05:20;5.55;;;1.60;;
69856;SDS011;57147;53.582;10.112;2023-05-02T19:10:23;5.85;;;1.27;;
69856;SDS011;57147;53.582;10.112;2023-05-02T19:15:24;3.30;;;1.48;;
69856;SDS011;57147;53.582;10.112;2023-05-02T19:20:25;4.25;;;1.27;;
69856;SDS011;57147;53.582;10.112;2023-05-02T19:25:29;2.00;;;0.98;;
69856;SDS011;57147;53.582;10.112;2023-05-02T19:30:30;9.57;;;2.88;;
69856;SDS011;57147;53.582;10.112;2023-05-02T19:35:30;3.20;;;1.30;;
69856;SDS011;57147;53.582;10.112;2023-05-02T19:40:33;3.47;;;1.20;;
69856;SDS011;57147;53.582;10.112;2023-05-02T19:45:34;3.90;;;1.83;;
69856;SDS011;57147;53.582;10.112;2023-05-02T19:50:34;3.03;;;1.58;;
69856;SDS011;57147;53.582;10.112;2023-05-02T19:55:38;4.50;;;1.83;;
69856;SDS011;57147;53.582;10.112;2023-05-02T20:00:39;5.15;;;2.15;;
69856;SDS011;57147;53.582;10.112;2023-05-02T20:05:39;4.40;;;1.45;;
69856;SDS011;57147;53.582;10.112;2023-05-02T20:10:42;3.20;;;1.15;;
69856;SDS011;57147;53.582;10.112;2023-05-02T20:15:43;3.05;;;0.70;;
69856;SDS011;57147;53.582;10.112;2023-05-02T20:20:44;4.25;;;1.60;;
69856;SDS011;57147;53.582;10.112;2023-05-02T20:25:47;3.05;;;1.55;;
69856;SDS011;57147;53.582;10.112;2023-05-02T20:30:48;5.85;;;1.55;;
69856;SDS011;57147;53.582;10.112;2023-05-02T20:35:52;6.63;;;1.63;;
69856;SDS011;57147;53.582;10.112;2023-05-02T20:40:55;3.65;;;0.88;;
69856;SDS011;57147;53.582;10.112;2023-05-02T20:45:56;5.28;;;1.27;;
69856;SDS011;57147;53.582;10.112;2023-05-02T20:50:57;4.55;;;1.23;;
69856;SDS011;57147;53.582;10.112;2023-05-02T20:56:01;6.22;;;1.33;;
69856;SDS011;57147;53.582;10.112;2023-05-02T21:01:01;5.50;;;2.13;;
69856;SDS011;57147;53.582;10.112;2023-05-02T21:06:02;5.20;;;2.53;;
69856;SDS011;57147;53.582;10.112;2023-05-02T21:11:13;5.97;;;2.80;;
69856;SDS011;57147;53.582;10.112;2023-05-02T21:16:15;4.85;;;1.17;;
69856;SDS011;57147;53.582;10.112;2023-05-02T21:21:16;3.47;;;1.77;;
69856;SDS011;57147;53.582;10.112;2023-05-02T21:26:19;4.07;;;1.65;;
69856;SDS011;57147;53.582;10.112;2023-05-02T21:31:21;5.93;;;2.50;;
69856;SDS011;57147;53.582;10.112;2023-05-02T21:36:21;3.53;;;1.98;;
69856;SDS011;57147;53.582;10.112;2023-05-02T21:41:25;5.45;;;2.13;;
69856;SDS011;57147;53.582;10.112;2023-05-02T21:46:25;4.25;;;1.33;;
69856;SDS011;57147;53.582;10.112;2023-05-02T21:51:26;6.35;;;1.80;;
69856;SDS011;57147;53.582;10.112;2023-05-02T21:56:29;4.70;;;2.95;;
69856;SDS011;57147;53.582;10.112;2023-05-02T22:01:30;3.17;;;2.35;;
69856;SDS011;57147;53.582;10.112;2023-05-02T22:06:30;4.68;;;2.15;;
69856;SDS011;57147;53.582;10.112;2023-05-02T22:11:33;3.67;;;2.13;;
69856;SDS011;57147;53.582;10.112;2023-05-02T22:16:34;7.13;;;1.55;;
69856;SDS011;57147;53.582;10.112;2023-05-02T22:21:34;6.28;;;1.92;;
69856;SDS011;57147;53.582;10.112;2023-05-02T22:26:38;4.00;;;1.75;;
69856;SDS011;57147;53.582;10.112;2023-05-02T22:31:38;5.43;;;1.85;;
69856;SDS011;57147;53.582;10.112;2023-05-02T22:36:39;2.30;;;1.35;;
69856;SDS011;57147;53.582;10.112;2023-05-02T22:41:42;3.65;;;2.03;;
69856;SDS011;57147;53.582;10.112;2023-05-02T22:46:43;4.18;;;1.95;;
69856;SDS011;57147;53.582;10.112;2023-05-02T22:51:44;5.15;;;1.80;;
69856;SDS011;57147;53.582;10.112;2023-05-02T22:56:47;4.88;;;1.25;;
69856;SDS011;57147;53.582;10.112;2023-05-02T23:01:47;5.95;;;2.47;;
69856;SDS011;57147;53.582;10.112;2023-05-02T23:06:48;4.78;;;3.25;;
69856;SDS011;57147;53.582;10.112;2023-05-02T23:11:51;4.20;;;2.15;;
69856;SDS011;57147;53.582;10.112;2023-05-02T23:16:52;5.32;;;2.30;;
69856;SDS011;57147;53.582;10.112;2023-05-02T23:21:53;4.32;;;2.25;;
69856;SDS011;57147;53.582;10.112;2023-05-02T23:26:56;5.22;;;1.65;;
69856;SDS011;57147;53.582;10.112;2023-05-02T23:31:57;7.80;;;1.92;;
69856;SDS011;57147;53.582;10.112;2023-05-02T23:36:58;4.50;;;1.75;;
69856;SDS011;57147;53.582;10.112;2023-05-02T23:42:01;7.10;;;2.97;;
69856;SDS011;57147;53.582;10.112;2023-05-02T23:47:02;6.10;;;2.25;;
69856;SDS011;57147;53.582;10.112;2023-05-02T23:52:04;6.85;;;2.42;;
69856;SDS011;57147;53.582;10.112;2023-05-02T23:57:07;4.30;;;1.83;;
